Time;durP1;ratioP1;P1;durP2;ratioP2;P2;SDS_P1;SDS_P2;PMS_P1;PMS_P2;Temp;Humidity;BMP_temperature;BMP_pressure;BME280_temperature;BME280_humidity;BME280_pressure;Samples;Min_cycle;Max_cycle;Signal;HPM_P1;HPM_P2
2022/06/08 00:00:54;;;;;;;;;;;;;;;;;;5125965;28;19962;-65
2022/06/08 00:03:20;;;;;;;;;;;;;;;;;;5124596;28;19923;-65
2022/06/08 00:05:46;;;;;;;;;;;;;;;;;;5125726;28;19941;-65
2022/06/08 00:08:12;;;;;;;;;;;;;;;;;;5125824;28;19934;-66
2022/06/08 00:10:38;;;;;;;;;;;;;;;;;;5124522;28;19924;-65
2022/06/08 00:13:04;;;;;;;;;;;;;;;;;;5125800;28;19931;-65
2022/06/08 00:15:30;;;;;;;;;;;;;;;;;;5125816;28;19931;-64
2022/06/08 00:17:56;;;;;;;;;;;;;;;;;;5123049;28;19927;-65
2022/06/08 00:20:22;;;;;;;;;;;;;;;;;;5116069;28;19931;-65
2022/06/08 00:22:48;;;;;;;;;;;;;;;;;;5124130;28;19924;-65
2022/06/08 00:25:14;;;;;;;;;;;;;;;;;;5125430;27;19924;-65
2022/06/08 00:27:40;;;;;;;;;;;;;;;;;;5151124;27;19931;-64
2022/06/08 00:30:06;;;;;;;;;;;;;;;;;;5125561;28;19927;-64
2022/06/08 00:32:31;;;;;;;;;;;;;;;;;;5124120;28;19923;-64
2022/06/08 00:34:58;;;;;;;;;;;;;;;;;;5125415;28;20005;-65
2022/06/08 00:37:25;;;;;;;;;;;;;;;;;;5121646;28;19924;-65
2022/06/08 00:39:51;;;;;;;;;;;;;;;;;;5125607;28;19923;-65
2022/06/08 00:42:17;;;;;;;;;;;;;;;;;;5125642;28;19924;-65
2022/06/08 00:44:43;;;;;;;;;;;;;;;;;;5125464;28;19920;-65
2022/06/08 00:47:09;;;;;;;;;;;;;;;;;;5124139;28;19972;-65
2022/06/08 00:49:35;;;;;;;;;;;;;;;;;;5125045;28;19924;-64
2022/06/08 00:52:00;;;;;;;;;;;;;;;;;;5129552;28;19981;-64
2022/06/08 00:54:26;;;;;;;;;;;;;;;;;;5130646;27;19935;-65
2022/06/08 00:56:52;;;;;;;;;;;;;;;;;;5138793;27;19971;-65
2022/06/08 00:59:18;;;;;;;;;;;;;;;;;;5127678;28;20015;-64
2022/06/08 01:01:44;;;;;;;;;;;;;;;;;;5128247;28;19923;-64
2022/06/08 01:04:10;;;;;;;;;;;;;;;;;;5142037;27;19923;-64
2022/06/08 01:06:36;;;;;;;;;;;;;;;;;;5127872;28;19969;-64
2022/06/08 01:09:02;;;;;;;;;;;;;;;;;;5127000;28;19924;-64
2022/06/08 01:11:28;;;;;;;;;;;;;;;;;;5128953;28;19927;-64
2022/06/08 01:13:54;;;;;;;;;;;;;;;;;;5129267;28;19924;-64
2022/06/08 01:16:20;;;;;;;;;;;;;;;;;;5129216;28;19931;-64
2022/06/08 01:18:46;;;;;;;;;;;;;;;;;;5129012;28;19926;-65
2022/06/08 01:21:12;;;;;;;;;;;;;;;;;;5125563;28;19928;-64
2022/06/08 01:23:38;;;;;;;;;;;;;;;;;;5122420;28;19927;-64
2022/06/08 01:26:04;;;;;;;;;;;;;;;;;;5127175;28;19990;-65
2022/06/08 01:28:30;;;;;;;;;;;;;;;;;;5128877;28;19935;-65
2022/06/08 01:30:56;;;;;;;;;;;;;;;;;;5128144;28;20607;-65
2022/06/08 01:33:22;;;;;;;;;;;;;;;;;;5128607;28;19924;-65
2022/06/08 01:35:48;;;;;;;;;;;;;;;;;;5127706;28;19924;-65
2022/06/08 01:38:13;;;;;;;;;;;;;;;;;;5128809;28;20275;-65
2022/06/08 01:40:39;;;;;;;;;;;;;;;;;;5128638;28;19924;-64
2022/06/08 01:43:05;;;;;;;;;;;;;;;;;;5128688;28;20009;-65
2022/06/08 01:45:33;;;;;;;;;;;;;;;;;;5125622;28;20409;-65
2022/06/08 01:47:59;;;;;;;;;;;;;;;;;;5115273;28;20419;-65
2022/06/08 01:50:25;;;;;;;;;;;;;;;;;;5122341;28;19923;-65
2022/06/08 01:52:51;;;;;;;;;;;;;;;;;;5127258;28;19954;-64
2022/06/08 01:55:17;;;;;;;;;;;;;;;;;;5137583;28;20378;-65
2022/06/08 01:57:43;;;;;;;;;;;;;;;;;;5140693;27;19928;-65
2022/06/08 02:00:09;;;;;;;;;;;;;;;;;;5126877;28;20005;-65
2022/06/08 02:02:35;;;;;;;;;;;;;;;;;;5126955;28;19946;-65
2022/06/08 02:05:02;;;;;;;;;;;;;;;;;;5160204;27;19959;-65
2022/06/08 02:07:28;;;;;;;;;;;;;;;;;;5124933;28;20019;-65
2022/06/08 02:09:54;;;;;;;;;;;;;;;;;;5114894;28;21387;-64
2022/06/08 02:12:20;;;;;;;;;;;;;;;;;;5126875;28;19931;-65
2022/06/08 02:14:46;;;;;;;;;;;;;;;;;;5125725;28;19935;-65
2022/06/08 02:17:12;;;;;;;;;;;;;;;;;;5126105;28;19919;-64
2022/06/08 02:19:38;;;;;;;;;;;;;;;;;;5128005;28;19930;-65
2022/06/08 02:22:04;;;;;;;;;;;;;;;;;;5126721;28;19931;-65
2022/06/08 02:24:30;;;;;;;;;;;;;;;;;;5125361;28;19945;-65
2022/06/08 02:26:56;;;;;;;;;;;;;;;;;;5125450;28;19924;-65
2022/06/08 02:29:22;;;;;;;;;;;;;;;;;;5126643;28;19971;-65
2022/06/08 02:31:48;;;;;;;;;;;;;;;;;;5116326;28;19935;-65
2022/06/08 02:34:31;;;;;;;;;;;;;;;;;;5113957;28;19924;-65
2022/06/08 02:36:57;;;;;;;;;;;;;;;;;;5119442;28;19924;-65
2022/06/08 02:39:23;;;;;;;;;;;;;;;;;;5126588;28;19965;-65
2022/06/08 02:41:49;;;;;;;;;;;;;;;;;;5126120;28;19927;-65
2022/06/08 02:44:14;;;;;;;;;;;;;;;;;;5158539;27;19953;-65
2022/06/08 02:46:41;;;;;;;;;;;;;;;;;;5133771;28;19959;-64
2022/06/08 02:49:06;;;;;;;;;;;;;;;;;;5126233;28;19924;-65
2022/06/08 02:51:32;;;;;;;;;;;;;;;;;;5119601;28;20399;-65
2022/06/08 02:53:59;;;;;;;;;;;;;;;;;;5093591;27;1770656;-65
2022/06/08 02:56:26;;;;;;;;;;;;;;;;;;5127252;28;19973;-65
2022/06/08 02:58:52;;;;;;;;;;;;;;;;;;5127145;28;19945;-65
2022/06/08 03:01:18;;;;;;;;;;;;;;;;;;5127200;28;19923;-65
2022/06/08 03:03:45;;;;;;;;;;;;;;;;;;5124399;28;19928;-65
2022/06/08 03:06:11;;;;;;;;;;;;;;;;;;5127126;28;19955;-65
2022/06/08 03:08:37;;;;;;;;;;;;;;;;;;5125747;28;19931;-65
2022/06/08 03:11:03;;;;;;;;;;;;;;;;;;5125367;28;20018;-65
2022/06/08 03:13:29;;;;;;;;;;;;;;;;;;5125134;28;19945;-65
2022/06/08 03:15:55;;;;;;;;;;;;;;;;;;5134150;27;19924;-65
2022/06/08 03:18:21;;;;;;;;;;;;;;;;;;5134575;27;20344;-65
2022/06/08 03:20:47;;;;;;;;;;;;;;;;;;5126870;28;19920;-66
2022/06/08 03:23:13;;;;;;;;;;;;;;;;;;5124519;28;19923;-65
2022/06/08 03:25:39;;;;;;;;;;;;;;;;;;5125238;28;19928;-65
2022/06/08 03:28:05;;;;;;;;;;;;;;;;;;5125362;28;19927;-65
2022/06/08 03:30:31;;;;;;;;;;;;;;;;;;5126607;28;19952;-65
2022/06/08 03:32:57;;;;;;;;;;;;;;;;;;5126262;28;19927;-65
2022/06/08 03:35:23;;;;;;;;;;;;;;;;;;5123594;28;19927;-65
2022/06/08 03:37:49;;;;;;;;;;;;;;;;;;5118967;28;20018;-65
2022/06/08 03:40:15;;;;;;;;;;;;;;;;;;5125072;28;19935;-65
2022/06/08 03:42:41;;;;;;;;;;;;;;;;;;5126545;28;19923;-65
2022/06/08 03:45:07;;;;;;;;;;;;;;;;;;5130271;27;19928;-65
2022/06/08 03:47:33;;;;;;;;;;;;;;;;;;5126054;28;20431;-66
2022/06/08 03:49:59;;;;;;;;;;;;;;;;;;5124583;28;20550;-65
2022/06/08 03:52:25;;;;;;;;;;;;;;;;;;5118564;28;20162;-65
2022/06/08 03:54:50;;;;;;;;;;;;;;;;;;5117141;28;19930;-66
2022/06/08 03:57:16;;;;;;;;;;;;;;;;;;5116766;28;19932;-66
2022/06/08 03:59:42;;;;;;;;;;;;;;;;;;5149690;27;19924;-65
2022/06/08 04:02:09;;;;;;;;;;;;;;;;;;5116971;28;19924;-65
2022/06/08 04:04:35;;;;;;;;;;;;;;;;;;5120299;28;19978;-66
2022/06/08 04:07:01;;;;;;;;;;;;;;;;;;5143140;27;20370;-65
2022/06/08 04:09:27;;;;;;;;;;;;;;;;;;5118571;28;19924;-65
2022/06/08 04:11:53;;;;;;;;;;;;;;;;;;5150413;27;19968;-65
2022/06/08 04:14:20;;;;;;;;;;;;;;;;;;5123810;28;19928;-66
2022/06/08 04:16:47;;;;;;;;;;;;;;;;;;5130887;27;19975;-66
2022/06/08 04:19:13;;;;;;;;;;;;;;;;;;5120921;28;19923;-65
2022/06/08 04:21:39;;;;;;;;;;;;;;;;;;5120245;28;19970;-65
2022/06/08 04:24:05;;;;;;;;;;;;;;;;;;5119619;28;19981;-65
2022/06/08 04:26:31;;;;;;;;;;;;;;;;;;5114560;28;20318;-65
2022/06/08 04:28:57;;;;;;;;;;;;;;;;;;5113939;28;19970;-66
2022/06/08 04:31:23;;;;;;;;;;;;;;;;;;5124413;28;19969;-65
2022/06/08 04:33:50;;;;;;;;;;;;;;;;;;5125373;28;19967;-65
2022/06/08 04:36:16;;;;;;;;;;;;;;;;;;5124416;28;20417;-65
2022/06/08 04:38:42;;;;;;;;;;;;;;;;;;5125771;28;19923;-65
2022/06/08 04:41:08;;;;;;;;;;;;;;;;;;5125596;28;20031;-65
2022/06/08 04:43:34;;;;;;;;;;;;;;;;;;5123845;28;19936;-65
2022/06/08 04:46:00;;;;;;;;;;;;;;;;;;5113472;28;20045;-65
2022/06/08 04:48:26;;;;;;;;;;;;;;;;;;5121681;28;19962;-65
2022/06/08 04:50:52;;;;;;;;;;;;;;;;;;5125529;28;19924;-65
2022/06/08 04:53:18;;;;;;;;;;;;;;;;;;5125280;28;19935;-65
2022/06/08 04:55:44;;;;;;;;;;;;;;;;;;5125470;28;19924;-66
2022/06/08 04:58:10;;;;;;;;;;;;;;;;;;5125540;28;20010;-66
2022/06/08 05:00:36;;;;;;;;;;;;;;;;;;5123841;28;19930;-66
2022/06/08 05:03:02;;;;;;;;;;;;;;;;;;5125192;28;20020;-65
2022/06/08 05:05:28;;;;;;;;;;;;;;;;;;5124031;28;19931;-65
2022/06/08 05:07:54;;;;;;;;;;;;;;;;;;5125340;28;19923;-65
2022/06/08 05:10:20;;;;;;;;;;;;;;;;;;5119578;28;19950;-65
2022/06/08 05:12:46;;;;;;;;;;;;;;;;;;5148565;27;19924;-65
2022/06/08 05:15:12;;;;;;;;;;;;;;;;;;5132539;28;19923;-67
2022/06/08 05:17:38;;;;;;;;;;;;;;;;;;5127882;28;19999;-67
2022/06/08 05:20:04;;;;;;;;;;;;;;;;;;5125375;28;19920;-67
2022/06/08 05:22:30;;;;;;;;;;;;;;;;;;5123718;28;19924;-67
2022/06/08 05:24:56;;;;;;;;;;;;;;;;;;5123584;28;19974;-67
2022/06/08 05:27:21;;;;;;;;;;;;;;;;;;5125416;28;19923;-67
2022/06/08 05:29:47;;;;;;;;;;;;;;;;;;5125074;28;20286;-67
2022/06/08 05:32:13;;;;;;;;;;;;;;;;;;5157973;27;19924;-66
2022/06/08 05:34:39;;;;;;;;;;;;;;;;;;5124966;28;19923;-67
2022/06/08 05:37:05;;;;;;;;;;;;;;;;;;5127540;28;19931;-67
2022/06/08 05:39:31;;;;;;;;;;;;;;;;;;5127281;28;19920;-67
2022/06/08 05:41:57;;;;;;;;;;;;;;;;;;5127542;28;19924;-67
2022/06/08 05:44:23;;;;;;;;;;;;;;;;;;5131610;27;19931;-67
2022/06/08 05:46:50;;;;;;;;;;;;;;;;;;5127639;27;20294;-67
2022/06/08 05:49:16;;;;;;;;;;;;;;;;;;5128620;28;19962;-67
2022/06/08 05:51:42;;;;;;;;;;;;;;;;;;5128301;28;19923;-67
2022/06/08 05:54:07;;;;;;;;;;;;;;;;;;5126790;28;19928;-66
2022/06/08 05:56:33;;;;;;;;;;;;;;;;;;5128841;28;19970;-67
2022/06/08 05:58:59;;;;;;;;;;;;;;;;;;5128426;28;19926;-67
2022/06/08 06:01:25;;;;;;;;;;;;;;;;;;5127121;28;19998;-66
2022/06/08 06:03:51;;;;;;;;;;;;;;;;;;5126692;28;19924;-66
2022/06/08 06:06:17;;;;;;;;;;;;;;;;;;5128436;28;19926;-67
2022/06/08 06:08:45;;;;;;;;;;;;;;;;;;5128342;28;20349;-66
2022/06/08 06:11:13;;;;;;;;;;;;;;;;;;5114018;28;19924;-66
2022/06/08 06:13:39;;;;;;;;;;;;;;;;;;5128235;28;19924;-67
2022/06/08 06:16:04;;;;;;;;;;;;;;;;;;5138139;27;19996;-66
2022/06/08 06:18:30;;;;;;;;;;;;;;;;;;5137246;27;20026;-66
2022/06/08 06:20:56;;;;;;;;;;;;;;;;;;5126698;28;19924;-66
2022/06/08 06:23:23;;;;;;;;;;;;;;;;;;5127975;28;19949;-66
2022/06/08 06:25:49;;;;;;;;;;;;;;;;;;5126517;27;19930;-66
2022/06/08 06:28:15;;;;;;;;;;;;;;;;;;5117470;28;19927;-66
2022/06/08 06:30:41;;;;;;;;;;;;;;;;;;5127758;28;19924;-66
2022/06/08 06:33:07;;;;;;;;;;;;;;;;;;5129861;27;19934;-66
2022/06/08 06:35:33;;;;;;;;;;;;;;;;;;5136967;27;20402;-66
2022/06/08 06:37:59;;;;;;;;;;;;;;;;;;5127572;28;19932;-66
2022/06/08 06:40:25;;;;;;;;;;;;;;;;;;5127689;28;19930;-66
2022/06/08 06:42:51;;;;;;;;;;;;;;;;;;5116725;28;19968;-67
2022/06/08 06:45:17;;;;;;;;;;;;;;;;;;5123627;28;19923;-66
2022/06/08 06:47:43;;;;;;;;;;;;;;;;;;5120709;28;19989;-66
2022/06/08 06:50:09;;;;;;;;;;;;;;;;;;5122132;27;19931;-66
2022/06/08 06:52:35;;;;;;;;;;;;;;;;;;5123666;28;19924;-66
2022/06/08 06:55:01;;;;;;;;;;;;;;;;;;5127017;28;20014;-68
2022/06/08 06:57:27;;;;;;;;;;;;;;;;;;5126017;27;19931;-66
2022/06/08 06:59:53;;;;;;;;;;;;;;;;;;5118011;28;20310;-66
2022/06/08 07:02:19;;;;;;;;;;;;;;;;;;5126282;28;19928;-66
2022/06/08 07:04:45;;;;;;;;;;;;;;;;;;5157928;27;20397;-66
2022/06/08 07:07:11;;;;;;;;;;;;;;;;;;5122972;28;21886;-66
2022/06/08 07:09:37;;;;;;;;;;;;;;;;;;5125159;28;19927;-66
2022/06/08 07:12:03;;;;;;;;;;;;;;;;;;5125475;28;19931;-66
2022/06/08 07:14:29;;;;;;;;;;;;;;;;;;5126402;27;19928;-66
2022/06/08 07:16:55;;;;;;;;;;;;;;;;;;5127874;27;20014;-66
2022/06/08 07:19:21;;;;;;;;;;;;;;;;;;5128468;27;19931;-66
2022/06/08 07:21:47;;;;;;;;;;;;;;;;;;5126826;28;19924;-66
2022/06/08 07:24:13;;;;;;;;;;;;;;;;;;5125234;28;19919;-66
2022/06/08 07:26:39;;;;;;;;;;;;;;;;;;5117301;28;20303;-66
2022/06/08 07:29:06;;;;;;;;;;;;;;;;;;5126668;28;19938;-66
2022/06/08 07:31:32;;;;;;;;;;;;;;;;;;5126397;28;19930;-66
2022/06/08 07:33:58;;;;;;;;;;;;;;;;;;5126277;28;20002;-66
2022/06/08 07:36:24;;;;;;;;;;;;;;;;;;5122824;28;19924;-66
2022/06/08 07:38:50;;;;;;;;;;;;;;;;;;5126325;28;19928;-66
2022/06/08 07:41:16;;;;;;;;;;;;;;;;;;5126353;28;19931;-66
2022/06/08 07:43:42;;;;;;;;;;;;;;;;;;5124431;28;19919;-66
2022/06/08 07:46:09;;;;;;;;;;;;;;;;;;5125962;28;19924;-66
2022/06/08 07:51:20;;;;;;;;;;;;;;;;;;5126379;27;20011;-66
2022/06/08 07:53:46;;;;;;;;;;;;;;;;;;5126146;28;19949;-66
2022/06/08 07:56:12;;;;;;;;;;;;;;;;;;5126147;28;20099;-66
2022/06/08 07:58:38;;;;;;;;;;;;;;;;;;5125888;28;20039;-66
2022/06/08 08:01:04;;;;;;;;;;;;;;;;;;5125178;28;19924;-66
2022/06/08 08:03:30;;;;;;;;;;;;;;;;;;5126102;28;19930;-66
2022/06/08 08:05:56;;;;;;;;;;;;;;;;;;5125233;28;19992;-65
2022/06/08 08:08:22;;;;;;;;;;;;;;;;;;5123867;28;19928;-65
2022/06/08 08:10:48;;;;;;;;;;;;;;;;;;5156237;27;19969;-66
2022/06/08 08:13:14;;;;;;;;;;;;;;;;;;5126042;28;19924;-65
2022/06/08 08:15:40;;;;;;;;;;;;;;;;;;5122352;28;20302;-66
2022/06/08 08:18:06;;;;;;;;;;;;;;;;;;5127720;27;19924;-65
2022/06/08 08:20:33;;;;;;;;;;;;;;;;;;5139311;27;20094;-66
2022/06/08 08:23:00;;;;;;;;;;;;;;;;;;5132881;27;19928;-66
2022/06/08 08:25:26;;;;;;;;;;;;;;;;;;5120779;28;19964;-66
2022/06/08 08:27:52;;;;;;;;;;;;;;;;;;5124327;28;19924;-66
2022/06/08 08:30:18;;;;;;;;;;;;;;;;;;5125813;28;19924;-66
2022/06/08 08:32:44;;;;;;;;;;;;;;;;;;5123784;28;19924;-66
2022/06/08 08:35:10;;;;;;;;;;;;;;;;;;5123347;28;19928;-66
2022/06/08 08:37:36;;;;;;;;;;;;;;;;;;5125543;28;19924;-66
2022/06/08 08:40:02;;;;;;;;;;;;;;;;;;5127603;28;19924;-65
2022/06/08 08:42:28;;;;;;;;;;;;;;;;;;5123341;28;19984;-66
2022/06/08 08:44:54;;;;;;;;;;;;;;;;;;5125496;28;19963;-66
2022/06/08 08:47:20;;;;;;;;;;;;;;;;;;5125082;28;19981;-66
2022/06/08 08:49:46;;;;;;;;;;;;;;;;;;5125275;28;19928;-65
2022/06/08 08:52:12;;;;;;;;;;;;;;;;;;5124039;28;20304;-66
2022/06/08 08:54:38;;;;;;;;;;;;;;;;;;5119476;28;19923;-66
2022/06/08 08:57:04;;;;;;;;;;;;;;;;;;5111366;28;20017;-66
2022/06/08 08:59:30;;;;;;;;;;;;;;;;;;5125489;28;19931;-66
2022/06/08 09:01:56;;;;;;;;;;;;;;;;;;5123757;28;19923;-64
2022/06/08 09:04:22;;;;;;;;;;;;;;;;;;5125250;28;19927;-65
2022/06/08 09:06:48;;;;;;;;;;;;;;;;;;5124006;28;20219;-65
2022/06/08 09:09:15;;;;;;;;;;;;;;;;;;5125760;28;19975;-65
2022/06/08 09:11:41;;;;;;;;;;;;;;;;;;5128383;28;19986;-65
2022/06/08 09:14:07;;;;;;;;;;;;;;;;;;5129190;28;19961;-65
2022/06/08 09:16:35;;;;;;;;;;;;;;;;;;5128024;28;19924;-64
2022/06/08 09:19:01;;;;;;;;;;;;;;;;;;5128978;27;19924;-64
2022/06/08 09:21:27;;;;;;;;;;;;;;;;;;5127341;28;19924;-65
2022/06/08 09:23:53;;;;;;;;;;;;;;;;;;5128867;28;19924;-65
2022/06/08 09:26:19;;;;;;;;;;;;;;;;;;5128862;28;19931;-67
2022/06/08 09:28:45;;;;;;;;;;;;;;;;;;5120778;28;19923;-68
2022/06/08 09:31:11;;;;;;;;;;;;;;;;;;5127300;28;19924;-68
2022/06/08 09:33:38;;;;;;;;;;;;;;;;;;5120696;28;19977;-68
2022/06/08 09:36:03;;;;;;;;;;;;;;;;;;5127438;28;19930;-68
2022/06/08 09:38:29;;;;;;;;;;;;;;;;;;5128726;27;20003;-68
2022/06/08 09:40:55;;;;;;;;;;;;;;;;;;5129948;27;19931;-69
2022/06/08 09:43:23;;;;;;;;;;;;;;;;;;5156800;27;20306;-69
2022/06/08 09:45:49;;;;;;;;;;;;;;;;;;5160225;27;20010;-68
2022/06/08 09:53:44;;;;;;;;;;;;;;;;;;5127061;28;19927;-67
2022/06/08 09:56:10;;;;;;;;;;;;;;;;;;5128455;28;19923;-68
2022/06/08 09:58:36;;;;;;;;;;;;;;;;;;5128526;28;19924;-67
2022/06/08 10:01:03;;;;;;;;;;;;;;;;;;5125318;28;20321;-59
2022/06/08 10:03:29;;;;;;;;;;;;;;;;;;5115154;27;19928;-68
2022/06/08 10:05:56;;;;;;;;;;;;;;;;;;5127076;28;19923;-68
2022/06/08 10:08:22;;;;;;;;;;;;;;;;;;5124433;28;19932;-67
2022/06/08 10:10:48;;;;;;;;;;;;;;;;;;5120550;27;20147;-67
2022/06/08 10:13:16;;;;;;;;;;;;;;;;;;5127300;27;19923;-68
2022/06/08 10:15:42;;;;;;;;;;;;;;;;;;5126211;28;19932;-67
2022/06/08 10:18:09;;;;;;;;;;;;;;;;;;5124639;27;20382;-67
2022/06/08 10:20:36;;;;;;;;;;;;;;;;;;5128079;27;19987;-63
2022/06/08 10:23:02;;;;;;;;;;;;;;;;;;5127556;28;19989;-69
2022/06/08 10:25:28;;;;;;;;;;;;;;;;;;5128004;28;19924;-68
2022/06/08 10:27:54;;;;;;;;;;;;;;;;;;5134878;27;19931;-68
2022/06/08 10:30:20;;;;;;;;;;;;;;;;;;5127889;28;19935;-69
2022/06/08 10:32:46;;;;;;;;;;;;;;;;;;5122296;28;19924;-68
2022/06/08 10:35:12;;;;;;;;;;;;;;;;;;5127371;28;19923;-68
2022/06/08 10:37:38;;;;;;;;;;;;;;;;;;5127429;28;19930;-68
2022/06/08 10:40:04;;;;;;;;;;;;;;;;;;5125390;27;19928;-68
2022/06/08 10:42:39;;;;;;;;;;;;;;;;;;5130247;27;19924;-68
2022/06/08 10:45:05;;;;;;;;;;;;;;;;;;5126779;28;19931;-69
2022/06/08 10:47:31;;;;;;;;;;;;;;;;;;5124710;28;19923;-69
2022/06/08 10:49:57;;;;;;;;;;;;;;;;;;5149751;27;19924;-69
2022/06/08 10:52:23;;;;;;;;;;;;;;;;;;5127281;28;19924;-68
2022/06/08 10:54:55;;;;;;;;;;;;;;;;;;5120568;28;19936;-69
2022/06/08 10:57:21;;;;;;;;;;;;;;;;;;5124817;28;20318;-69
2022/06/08 10:59:47;;;;;;;;;;;;;;;;;;5126965;28;19945;-69
2022/06/08 11:02:16;;;;;;;;;;;;;;;;;;5126877;28;19930;-69
2022/06/08 11:04:43;;;;;;;;;;;;;;;;;;5121581;27;19931;-69
2022/06/08 11:07:10;;;;;;;;;;;;;;;;;;5131054;27;19920;-69
2022/06/08 11:09:36;;;;;;;;;;;;;;;;;;5125684;28;20035;-69
2022/06/08 11:12:04;;;;;;;;;;;;;;;;;;5126830;28;19928;-69
2022/06/08 11:14:30;;;;;;;;;;;;;;;;;;5126613;28;19945;-70
2022/06/08 11:16:56;;;;;;;;;;;;;;;;;;5126531;28;19935;-69
2022/06/08 11:19:22;;;;;;;;;;;;;;;;;;5125714;28;19923;-69
2022/06/08 11:21:48;;;;;;;;;;;;;;;;;;5119260;28;20006;-70
2022/06/08 11:24:14;;;;;;;;;;;;;;;;;;5125959;27;19991;-69
2022/06/08 11:26:40;;;;;;;;;;;;;;;;;;5123654;27;19931;-69
2022/06/08 11:29:06;;;;;;;;;;;;;;;;;;5126306;28;19924;-68
2022/06/08 11:31:32;;;;;;;;;;;;;;;;;;5129268;27;19969;-69
2022/06/08 11:33:58;;;;;;;;;;;;;;;;;;5124541;28;19993;-67
2022/06/08 11:36:24;;;;;;;;;;;;;;;;;;5128244;27;20328;-68
2022/06/08 11:38:50;;;;;;;;;;;;;;;;;;5140693;27;19924;-69
2022/06/08 11:41:16;;;;;;;;;;;;;;;;;;5126475;27;20205;-69
2022/06/08 11:43:42;;;;;;;;;;;;;;;;;;5129336;27;19923;-71
2022/06/08 11:46:10;;;;;;;;;;;;;;;;;;5125777;27;19920;-70
2022/06/08 11:48:38;;;;;;;;;;;;;;;;;;5126406;28;19963;-72
2022/06/08 11:51:04;;;;;;;;;;;;;;;;;;5126200;28;19932;-72
2022/06/08 11:53:30;;;;;;;;;;;;;;;;;;5124936;28;19924;-69
2022/06/08 11:55:57;;;;;;;;;;;;;;;;;;5133431;27;19959;-69
2022/06/08 11:58:23;;;;;;;;;;;;;;;;;;5126302;28;19924;-67
2022/06/08 12:00:51;;;;;;;;;;;;;;;;;;5126048;28;19987;-67
2022/06/08 12:03:17;;;;;;;;;;;;;;;;;;5125984;28;19946;-67
2022/06/08 12:05:43;;;;;;;;;;;;;;;;;;5125965;28;20374;-67
2022/06/08 12:08:09;;;;;;;;;;;;;;;;;;5122909;28;19934;-66
2022/06/08 12:10:35;;;;;;;;;;;;;;;;;;5123058;28;19923;-66
2022/06/08 12:13:01;;;;;;;;;;;;;;;;;;5122869;28;19924;-66
2022/06/08 12:15:27;;;;;;;;;;;;;;;;;;5122599;28;19932;-67
2022/06/08 12:17:53;;;;;;;;;;;;;;;;;;5125522;28;19924;-67
2022/06/08 12:20:19;;;;;;;;;;;;;;;;;;5154544;27;19934;-68
2022/06/08 12:22:45;;;;;;;;;;;;;;;;;;5125061;28;19923;-68
2022/06/08 12:25:13;;;;;;;;;;;;;;;;;;5126585;28;20054;-68
2022/06/08 12:27:39;;;;;;;;;;;;;;;;;;5115988;27;19924;-68
2022/06/08 12:30:06;;;;;;;;;;;;;;;;;;5124446;28;19977;-67
2022/06/08 12:32:33;;;;;;;;;;;;;;;;;;5125229;28;19931;-68
2022/06/08 12:34:59;;;;;;;;;;;;;;;;;;5153636;27;19924;-67
2022/06/08 12:37:25;;;;;;;;;;;;;;;;;;5125508;27;19927;-66
2022/06/08 12:39:51;;;;;;;;;;;;;;;;;;5125341;27;19924;-66
2022/06/08 12:42:17;;;;;;;;;;;;;;;;;;5125618;27;19923;-66
2022/06/08 12:44:43;;;;;;;;;;;;;;;;;;5158853;27;19942;-66
2022/06/08 12:47:09;;;;;;;;;;;;;;;;;;5163096;27;19928;-66
2022/06/08 12:49:35;;;;;;;;;;;;;;;;;;5148480;27;19924;-69
2022/06/08 12:52:02;;;;;;;;;;;;;;;;;;5129471;28;19935;-67
2022/06/08 12:54:28;;;;;;;;;;;;;;;;;;5130347;27;19943;-66
2022/06/08 12:56:54;;;;;;;;;;;;;;;;;;5119125;27;19927;-66
2022/06/08 12:59:20;;;;;;;;;;;;;;;;;;5146508;27;19925;-66
2022/06/08 13:01:47;;;;;;;;;;;;;;;;;;5110469;28;20010;-66
2022/06/08 13:04:13;;;;;;;;;;;;;;;;;;5128074;28;19946;-66
2022/06/08 13:06:39;;;;;;;;;;;;;;;;;;5128287;28;19928;-66
2022/06/08 13:09:05;;;;;;;;;;;;;;;;;;5129412;28;19932;-66
2022/06/08 13:11:31;;;;;;;;;;;;;;;;;;5129445;28;19923;-66
2022/06/08 13:13:57;;;;;;;;;;;;;;;;;;5127971;28;19924;-67
2022/06/08 13:16:23;;;;;;;;;;;;;;;;;;5127837;28;19920;-67
2022/06/08 13:18:49;;;;;;;;;;;;;;;;;;5129154;28;19930;-67
2022/06/08 13:21:15;;;;;;;;;;;;;;;;;;5129200;28;19923;-68
2022/06/08 13:23:41;;;;;;;;;;;;;;;;;;5127664;28;19920;-69
2022/06/08 13:26:07;;;;;;;;;;;;;;;;;;5126885;27;19927;-68
2022/06/08 13:28:33;;;;;;;;;;;;;;;;;;5125027;28;19932;-68
2022/06/08 13:31:00;;;;;;;;;;;;;;;;;;5127637;28;19923;-68
2022/06/08 13:36:10;;;;;;;;;;;;;;;;;;5122737;28;19991;-69
2022/06/08 13:38:36;;;;;;;;;;;;;;;;;;5122906;28;19924;-68
2022/06/08 13:41:03;;;;;;;;;;;;;;;;;;5128411;27;19997;-68
2022/06/08 13:43:29;;;;;;;;;;;;;;;;;;5128373;28;19932;-68
2022/06/08 13:45:56;;;;;;;;;;;;;;;;;;5128732;28;19931;-68
2022/06/08 13:48:22;;;;;;;;;;;;;;;;;;5122385;27;19924;-67
2022/06/08 13:50:48;;;;;;;;;;;;;;;;;;5125616;28;19924;-67
2022/06/08 13:53:14;;;;;;;;;;;;;;;;;;5127820;27;20375;-67
2022/06/08 13:55:40;;;;;;;;;;;;;;;;;;5128699;27;19963;-68
2022/06/08 13:58:06;;;;;;;;;;;;;;;;;;5125935;28;19924;-68
2022/06/08 14:00:33;;;;;;;;;;;;;;;;;;5120994;27;19923;-68
2022/06/08 14:02:59;;;;;;;;;;;;;;;;;;5127952;28;19973;-67
2022/06/08 14:12:59;;;;;;;;;;;;;;;;;;5127871;28;19930;-68
2022/06/08 14:13:41;;;;;;;;;;;;;;;;;;5127181;28;19925;-69
2022/06/08 14:16:07;;;;;;;;;;;;;;;;;;5128144;28;20313;-68
2022/06/08 14:18:33;;;;;;;;;;;;;;;;;;5128025;28;19931;-68
2022/06/08 14:20:59;;;;;;;;;;;;;;;;;;5128194;28;19957;-68
2022/06/08 14:23:25;;;;;;;;;;;;;;;;;;5133893;27;20330;-68
2022/06/08 14:25:52;;;;;;;;;;;;;;;;;;5131496;27;19959;-68
2022/06/08 14:28:18;;;;;;;;;;;;;;;;;;5126343;28;19955;-68
2022/06/08 14:30:44;;;;;;;;;;;;;;;;;;5127829;28;19945;-68
2022/06/08 14:33:10;;;;;;;;;;;;;;;;;;5126265;28;19963;-68
2022/06/08 14:35:39;;;;;;;;;;;;;;;;;;5119545;28;19993;-69
2022/06/08 14:38:05;;;;;;;;;;;;;;;;;;5124873;28;20060;-69
2022/06/08 14:40:31;;;;;;;;;;;;;;;;;;5126393;28;19931;-69
2022/06/08 14:42:57;;;;;;;;;;;;;;;;;;5126224;28;19984;-70
2022/06/08 14:45:23;;;;;;;;;;;;;;;;;;5120372;27;19991;-70
2022/06/08 14:47:49;;;;;;;;;;;;;;;;;;5121991;27;19973;-64
2022/06/08 14:50:15;;;;;;;;;;;;;;;;;;5120669;27;19924;-69
2022/06/08 14:52:43;;;;;;;;;;;;;;;;;;5123475;27;19995;-66
2022/06/08 14:56:23;;;;;;;;;;;;;;;;;;5133429;27;20030;-68
2022/06/08 14:57:55;;;;;;;;;;;;;;;;;;5131999;27;19923;-64
2022/06/08 15:00:21;;;;;;;;;;;;;;;;;;5127979;27;19931;-64
2022/06/08 15:02:47;;;;;;;;;;;;;;;;;;5123853;28;19987;-66
2022/06/08 15:05:13;;;;;;;;;;;;;;;;;;5149406;27;19927;-64
2022/06/08 15:07:39;;;;;;;;;;;;;;;;;;5125383;27;19927;-64
2022/06/08 15:10:06;;;;;;;;;;;;;;;;;;5124290;27;20067;-63
2022/06/08 15:12:32;;;;;;;;;;;;;;;;;;5122772;27;19979;-65
2022/06/08 15:14:58;;;;;;;;;;;;;;;;;;5121983;28;19932;-63
2022/06/08 15:17:24;;;;;;;;;;;;;;;;;;5125858;27;19945;-63
2022/06/08 15:19:50;;;;;;;;;;;;;;;;;;5135317;27;19967;-63
2022/06/08 15:22:16;;;;;;;;;;;;;;;;;;5130766;27;19930;-65
2022/06/08 15:24:42;;;;;;;;;;;;;;;;;;5134338;27;19983;-65
2022/06/08 15:27:08;;;;;;;;;;;;;;;;;;5119612;27;19924;-65
2022/06/08 15:29:34;;;;;;;;;;;;;;;;;;5122539;28;19924;-65
2022/06/08 15:32:00;;;;;;;;;;;;;;;;;;5127408;27;19959;-65
2022/06/08 15:34:26;;;;;;;;;;;;;;;;;;5131467;27;19984;-66
2022/06/08 15:36:53;;;;;;;;;;;;;;;;;;5124549;28;19932;-67
2022/06/08 15:39:19;;;;;;;;;;;;;;;;;;5127326;27;19923;-65
2022/06/08 15:41:46;;;;;;;;;;;;;;;;;;5126742;27;19931;-66
2022/06/08 15:44:12;;;;;;;;;;;;;;;;;;5126547;27;19924;-66
2022/06/08 15:46:38;;;;;;;;;;;;;;;;;;5133205;27;19930;-67
2022/06/08 15:49:06;;;;;;;;;;;;;;;;;;5128581;27;20007;-65
2022/06/08 15:51:32;;;;;;;;;;;;;;;;;;5124779;28;19930;-64
2022/06/08 15:53:58;;;;;;;;;;;;;;;;;;5114728;27;19924;-66
2022/06/08 15:56:24;;;;;;;;;;;;;;;;;;5119088;28;19951;-65
2022/06/08 15:58:50;;;;;;;;;;;;;;;;;;5126800;27;19931;-66
2022/06/08 16:01:17;;;;;;;;;;;;;;;;;;5120593;28;20027;-66
2022/06/08 16:03:43;;;;;;;;;;;;;;;;;;5124550;27;19923;-66
2022/06/08 16:06:09;;;;;;;;;;;;;;;;;;5123000;28;19949;-66
2022/06/08 16:08:35;;;;;;;;;;;;;;;;;;5125592;28;19931;-66
2022/06/08 16:11:01;;;;;;;;;;;;;;;;;;5125045;28;19928;-66
2022/06/08 16:13:27;;;;;;;;;;;;;;;;;;5117390;28;19928;-66
2022/06/08 16:15:53;;;;;;;;;;;;;;;;;;5115086;28;19938;-67
2022/06/08 16:18:19;;;;;;;;;;;;;;;;;;5117536;28;19951;-67
2022/06/08 16:20:45;;;;;;;;;;;;;;;;;;5120356;28;19931;-66
2022/06/08 16:23:11;;;;;;;;;;;;;;;;;;5124525;28;19936;-65
2022/06/08 16:25:39;;;;;;;;;;;;;;;;;;5125412;28;19924;-66
2022/06/08 16:28:05;;;;;;;;;;;;;;;;;;5125534;28;19934;-66
2022/06/08 16:30:32;;;;;;;;;;;;;;;;;;5123473;28;19994;-66
2022/06/08 16:32:58;;;;;;;;;;;;;;;;;;5121768;28;20079;-66
2022/06/08 16:35:24;;;;;;;;;;;;;;;;;;5113095;28;19953;-66
2022/06/08 16:37:50;;;;;;;;;;;;;;;;;;5125579;28;19948;-66
2022/06/08 16:40:19;;;;;;;;;;;;;;;;;;5125782;28;19923;-67
2022/06/08 16:42:45;;;;;;;;;;;;;;;;;;5125264;28;20014;-66
2022/06/08 16:45:11;;;;;;;;;;;;;;;;;;5125373;28;20398;-66
2022/06/08 16:47:38;;;;;;;;;;;;;;;;;;5123584;28;19963;-67
2022/06/08 16:50:04;;;;;;;;;;;;;;;;;;5120550;28;19919;-66
2022/06/08 16:52:30;;;;;;;;;;;;;;;;;;5117448;28;19930;-66
2022/06/08 16:54:56;;;;;;;;;;;;;;;;;;5121158;28;19962;-66